Terminal Aerodrome Forecast
Issued by NWS Denver/Boulder, CO

Home | Current Version | Previous Version | Text Only | Print | Product List | Glossary On
Versions: 1 2 3 4 5 6 7 8 9 10 11 12 13 14 15 16 17 18 19 20 21 22 23 24 25 26 27 28 29 30 31 32 33 34 35 36 37 38 39 40 41 42 43 44 45 46 47 48 49 50
000
FTUS45 KBOU 020010 AAB
TAFDEN
TAF AMD
KDEN 020010Z 0200/0306 12011KT P6SM VCSH SCT060 BKN100
      TEMPO 0200/0202 VRB15G25KT BKN060
     FM020300 01012G20KT P6SM SCT080 BKN120
     FM020800 06010KT P6SM SCT015 OVC035
     FM021300 07010KT P6SM VCSH SCT015 OVC025
      TEMPO 0214/0218 5SM -RASN BKN015
     FM021800 06010KT 5SM -RASN SCT012 OVC020
     FM022200 02015G22KT 1SM -SN BR OVC010
     FM030000 02012G22KT 3/4SM -SN BR SCT005 OVC008=

USA.gov is the U.S. government's official web portal to all federal, state and local government web resources and services.